SWR90A EDXW-LSZH
Flight info
| Callsign | SWR90A |
|---|---|
| Flight time | 1h 19m |
| Altitude | 38000 |
| Route | OLDIP1B OLDIP DCT BADOS DCT OMWEG Y348 ELSOB DCT OTMON DCT SWALM DCT OMOGI/N0447F370 T721 LAMGO/N0408F270 T721 RILAX |
| Aircraft | A320/M-SDE2E3FGIRWXY/L |
Departure
| Time | 2026-05-07 17:12 |
|---|---|
| Airport | Westerland Sylt Airport (EDXW) |
Arrival
| Time | 2026-05-07 18:32 |
|---|---|
| Airport | Zürich Airport (LSZH) |
| Time | Latitude | Longitude | Altitude | Speed | Heading |
|---|---|---|---|---|---|
| 2026-05-07 16:16 | 54.91387 | 8.33117 | 40 ft | 0 kts | 269° |
| 2026-05-07 17:03 | 54.91387 | 8.33146 | 40 ft | 4 kts | 267° |
| 2026-05-07 17:03 | 54.91389 | 8.33193 | 40 ft | 4 kts | 260° |
| 2026-05-07 17:03 | 54.91396 | 8.33237 | 36 ft | 3 kts | 248° |
| 2026-05-07 17:04 | 54.91398 | 8.33249 | 37 ft | 0 kts | 247° |
| 2026-05-07 17:06 | 54.91397 | 8.33244 | 37 ft | 2 kts | 240° |
| 2026-05-07 17:06 | 54.91369 | 8.33247 | 38 ft | 7 kts | 176° |
| 2026-05-07 17:06 | 54.91308 | 8.33220 | 40 ft | 11 kts | 212° |
| 2026-05-07 17:07 | 54.91240 | 8.33178 | 39 ft | 10 kts | 177° |
| 2026-05-07 17:07 | 54.91173 | 8.33182 | 39 ft | 9 kts | 179° |
| 2026-05-07 17:07 | 54.91112 | 8.33183 | 39 ft | 10 kts | 179° |
| 2026-05-07 17:07 | 54.91012 | 8.33143 | 37 ft | 18 kts | 205° |
| 2026-05-07 17:08 | 54.90922 | 8.33134 | 39 ft | 13 kts | 149° |
| 2026-05-07 17:08 | 54.90817 | 8.33207 | 39 ft | 19 kts | 170° |
| 2026-05-07 17:08 | 54.90678 | 8.33230 | 39 ft | 19 kts | 174° |
| 2026-05-07 17:08 | 54.90550 | 8.33252 | 39 ft | 18 kts | 172° |
| 2026-05-07 17:09 | 54.90439 | 8.33315 | 39 ft | 16 kts | 149° |
| 2026-05-07 17:09 | 54.90350 | 8.33433 | 39 ft | 19 kts | 133° |
| 2026-05-07 17:09 | 54.90270 | 8.33667 | 39 ft | 23 kts | 108° |
| 2026-05-07 17:09 | 54.90244 | 8.33927 | 40 ft | 21 kts | 98° |
| 2026-05-07 17:10 | 54.90238 | 8.34168 | 40 ft | 20 kts | 83° |
| 2026-05-07 17:10 | 54.90262 | 8.34405 | 40 ft | 20 kts | 80° |
| 2026-05-07 17:10 | 54.90289 | 8.34653 | 40 ft | 21 kts | 79° |
| 2026-05-07 17:10 | 54.90314 | 8.34904 | 39 ft | 21 kts | 79° |
| 2026-05-07 17:11 | 54.90344 | 8.35094 | 38 ft | 12 kts | 58° |
| 2026-05-07 17:11 | 54.90391 | 8.35187 | 41 ft | 7 kts | 35° |
| 2026-05-07 17:11 | 54.90420 | 8.35165 | 40 ft | 4 kts | 325° |
| 2026-05-07 17:11 | 54.90534 | 8.35023 | 41 ft | 53 kts | 325° |
| 2026-05-07 17:12 | 54.91029 | 8.34411 | 43 ft | 119 kts | 324° |
| 2026-05-07 17:12 | 54.91805 | 8.33447 | 350 ft | 142 kts | 325° |
| 2026-05-07 17:12 | 54.92609 | 8.32447 | 1197 ft | 143 kts | 328° |
| 2026-05-07 17:12 | 54.93148 | 8.31777 | 1654 ft | 145 kts | 328° |
| 2026-05-07 17:13 | 54.94279 | 8.30379 | 2400 ft | 152 kts | 330° |
| 2026-05-07 17:13 | 54.95149 | 8.29304 | 2914 ft | 155 kts | 329° |
| 2026-05-07 17:13 | 54.96031 | 8.28209 | 3389 ft | 159 kts | 328° |
| 2026-05-07 17:13 | 54.96992 | 8.27022 | 3584 ft | 181 kts | 329° |
| 2026-05-07 17:14 | 54.98072 | 8.25689 | 3917 ft | 198 kts | 323° |
| 2026-05-07 17:14 | 54.98797 | 8.23567 | 4281 ft | 218 kts | 279° |
| 2026-05-07 17:14 | 54.98554 | 8.20910 | 4659 ft | 233 kts | 242° |
| 2026-05-07 17:14 | 54.97647 | 8.18536 | 5336 ft | 238 kts | 229° |
| 2026-05-07 17:15 | 54.96547 | 8.16353 | 6113 ft | 241 kts | 227° |
| 2026-05-07 17:15 | 54.95417 | 8.14214 | 6971 ft | 239 kts | 220° |
| 2026-05-07 17:15 | 54.93948 | 8.12941 | 7713 ft | 239 kts | 188° |
| 2026-05-07 17:15 | 54.92295 | 8.13083 | 8389 ft | 245 kts | 162° |
| 2026-05-07 17:16 | 54.90770 | 8.14642 | 8713 ft | 268 kts | 141° |
| 2026-05-07 17:16 | 54.89279 | 8.16754 | 9244 ft | 282 kts | 140° |
| 2026-05-07 17:16 | 54.88258 | 8.18242 | 9751 ft | 286 kts | 140° |
| 2026-05-07 17:16 | 54.86717 | 8.20495 | 10469 ft | 292 kts | 140° |
| 2026-05-07 17:17 | 54.85150 | 8.22781 | 11201 ft | 296 kts | 141° |
| 2026-05-07 17:17 | 54.83557 | 8.25081 | 11929 ft | 300 kts | 141° |
| 2026-05-07 17:17 | 54.81885 | 8.27288 | 12659 ft | 304 kts | 149° |
| 2026-05-07 17:17 | 54.80089 | 8.29261 | 13384 ft | 308 kts | 149° |
| 2026-05-07 17:18 | 54.78269 | 8.31253 | 14092 ft | 311 kts | 149° |
| 2026-05-07 17:18 | 54.76425 | 8.33263 | 14728 ft | 315 kts | 149° |
| 2026-05-07 17:18 | 54.74563 | 8.35289 | 15386 ft | 317 kts | 150° |
| 2026-05-07 17:18 | 54.72685 | 8.37332 | 16043 ft | 320 kts | 150° |
| 2026-05-07 17:19 | 54.70797 | 8.39409 | 16689 ft | 324 kts | 147° |
| 2026-05-07 17:19 | 54.69087 | 8.41977 | 17308 ft | 330 kts | 133° |
| 2026-05-07 17:19 | 54.67745 | 8.45218 | 17936 ft | 335 kts | 120° |
| 2026-05-07 17:19 | 54.66802 | 8.48933 | 18552 ft | 339 kts | 113° |
| 2026-05-07 17:20 | 54.65920 | 8.52735 | 19100 ft | 342 kts | 113° |
| 2026-05-07 17:20 | 54.65021 | 8.56556 | 19657 ft | 344 kts | 114° |
| 2026-05-07 17:20 | 54.64100 | 8.60438 | 20239 ft | 347 kts | 114° |
| 2026-05-07 17:20 | 54.63182 | 8.64303 | 20789 ft | 349 kts | 114° |
| 2026-05-07 17:21 | 54.62223 | 8.68162 | 21337 ft | 351 kts | 119° |
| 2026-05-07 17:21 | 54.60915 | 8.71714 | 21798 ft | 354 kts | 130° |
| 2026-05-07 17:21 | 54.59215 | 8.74888 | 21926 ft | 367 kts | 137° |
| 2026-05-07 17:21 | 54.57383 | 8.78068 | 22064 ft | 381 kts | 137° |
| 2026-05-07 17:22 | 54.55478 | 8.81369 | 22197 ft | 395 kts | 137° |
| 2026-05-07 17:22 | 54.53512 | 8.84782 | 22335 ft | 408 kts | 136° |
| 2026-05-07 17:22 | 54.51488 | 8.88312 | 22563 ft | 417 kts | 136° |
| 2026-05-07 17:22 | 54.49448 | 8.91886 | 22973 ft | 421 kts | 136° |
| 2026-05-07 17:23 | 54.47385 | 8.95500 | 23418 ft | 424 kts | 136° |
| 2026-05-07 17:23 | 54.45308 | 8.99129 | 23817 ft | 427 kts | 136° |
| 2026-05-07 17:23 | 54.43214 | 9.02769 | 24187 ft | 429 kts | 136° |
| 2026-05-07 17:23 | 54.41112 | 9.06411 | 24559 ft | 431 kts | 136° |
| 2026-05-07 17:24 | 54.38997 | 9.10070 | 24928 ft | 432 kts | 136° |
| 2026-05-07 17:24 | 54.36754 | 9.13508 | 25275 ft | 433 kts | 144° |
| 2026-05-07 17:24 | 54.34231 | 9.16317 | 25639 ft | 433 kts | 151° |
| 2026-05-07 17:24 | 54.31621 | 9.18910 | 25990 ft | 435 kts | 151° |
| 2026-05-07 17:25 | 54.29007 | 9.21512 | 26320 ft | 436 kts | 151° |
| 2026-05-07 17:25 | 54.26378 | 9.24127 | 26663 ft | 438 kts | 151° |
| 2026-05-07 17:25 | 54.23741 | 9.26749 | 26997 ft | 439 kts | 151° |
| 2026-05-07 17:25 | 54.21093 | 9.29375 | 27319 ft | 441 kts | 151° |
| 2026-05-07 17:26 | 54.18434 | 9.32008 | 27636 ft | 442 kts | 151° |
| 2026-05-07 17:26 | 54.15800 | 9.34613 | 27925 ft | 444 kts | 151° |
| 2026-05-07 17:26 | 54.13290 | 9.37093 | 28205 ft | 445 kts | 151° |
| 2026-05-07 17:26 | 54.10603 | 9.39745 | 28489 ft | 447 kts | 151° |
| 2026-05-07 17:27 | 54.07915 | 9.42398 | 28773 ft | 448 kts | 151° |
| 2026-05-07 17:27 | 54.05207 | 9.45067 | 29011 ft | 449 kts | 151° |
| 2026-05-07 17:27 | 54.02469 | 9.47632 | 29271 ft | 450 kts | 156° |
| 2026-05-07 17:27 | 53.99556 | 9.49535 | 29606 ft | 448 kts | 164° |
| 2026-05-07 17:28 | 53.96522 | 9.50660 | 29970 ft | 446 kts | 173° |
| 2026-05-07 17:28 | 53.93454 | 9.51363 | 30308 ft | 444 kts | 173° |
| 2026-05-07 17:28 | 53.90395 | 9.52075 | 30599 ft | 444 kts | 173° |
| 2026-05-07 17:28 | 53.87338 | 9.52795 | 30866 ft | 443 kts | 173° |
| 2026-05-07 17:29 | 53.84288 | 9.53512 | 31144 ft | 443 kts | 173° |
| 2026-05-07 17:29 | 53.81262 | 9.54223 | 31418 ft | 443 kts | 173° |
| 2026-05-07 17:29 | 53.78214 | 9.54932 | 31688 ft | 443 kts | 173° |
| 2026-05-07 17:29 | 53.75162 | 9.55642 | 31965 ft | 443 kts | 173° |
| 2026-05-07 17:30 | 53.72111 | 9.56355 | 32251 ft | 442 kts | 173° |
| 2026-05-07 17:30 | 53.69066 | 9.57069 | 32535 ft | 442 kts | 173° |
| 2026-05-07 17:30 | 53.66025 | 9.57713 | 32814 ft | 441 kts | 177° |
| 2026-05-07 17:30 | 53.62962 | 9.57719 | 33086 ft | 440 kts | 185° |
| 2026-05-07 17:31 | 53.59906 | 9.57384 | 33353 ft | 440 kts | 185° |
| 2026-05-07 17:31 | 53.56858 | 9.57053 | 33626 ft | 440 kts | 184° |
| 2026-05-07 17:31 | 53.53805 | 9.56729 | 33893 ft | 440 kts | 184° |
| 2026-05-07 17:31 | 53.50748 | 9.56409 | 34153 ft | 439 kts | 184° |
| 2026-05-07 17:32 | 53.47700 | 9.56096 | 34383 ft | 439 kts | 184° |
| 2026-05-07 17:32 | 53.44647 | 9.55789 | 34599 ft | 440 kts | 184° |
| 2026-05-07 17:32 | 53.41589 | 9.55481 | 34816 ft | 440 kts | 184° |
| 2026-05-07 17:32 | 53.38497 | 9.55162 | 35008 ft | 440 kts | 184° |
| 2026-05-07 17:33 | 53.32358 | 9.54517 | 35094 ft | 443 kts | 185° |
| 2026-05-07 17:33 | 53.26208 | 9.53875 | 35090 ft | 443 kts | 184° |
| 2026-05-07 17:34 | 53.20051 | 9.53251 | 35087 ft | 443 kts | 184° |
| 2026-05-07 17:34 | 53.13901 | 9.52620 | 35090 ft | 443 kts | 185° |
| 2026-05-07 17:35 | 53.07747 | 9.51988 | 35084 ft | 443 kts | 184° |
| 2026-05-07 17:35 | 53.01598 | 9.51353 | 35082 ft | 443 kts | 185° |
| 2026-05-07 17:36 | 52.95448 | 9.50722 | 35081 ft | 443 kts | 185° |
| 2026-05-07 17:36 | 52.89303 | 9.50102 | 35078 ft | 443 kts | 185° |
| 2026-05-07 17:37 | 52.83157 | 9.49339 | 35080 ft | 443 kts | 186° |
| 2026-05-07 17:37 | 52.77021 | 9.48425 | 35085 ft | 443 kts | 186° |
| 2026-05-07 17:38 | 52.70883 | 9.47512 | 35087 ft | 443 kts | 186° |
| 2026-05-07 17:38 | 52.64747 | 9.46640 | 35092 ft | 443 kts | 186° |
| 2026-05-07 17:39 | 52.58599 | 9.45786 | 35098 ft | 443 kts | 186° |
| 2026-05-07 17:39 | 52.52407 | 9.44922 | 35102 ft | 444 kts | 186° |
| 2026-05-07 17:40 | 52.46253 | 9.44056 | 35101 ft | 444 kts | 186° |
| 2026-05-07 17:40 | 52.40101 | 9.43186 | 35103 ft | 444 kts | 186° |
| 2026-05-07 17:41 | 52.33938 | 9.42319 | 35102 ft | 444 kts | 186° |
| 2026-05-07 17:41 | 52.27776 | 9.41460 | 35101 ft | 444 kts | 186° |
| 2026-05-07 17:42 | 52.21615 | 9.40607 | 35090 ft | 444 kts | 186° |
| 2026-05-07 17:42 | 52.15449 | 9.39763 | 35096 ft | 445 kts | 186° |
| 2026-05-07 17:43 | 52.09283 | 9.38921 | 35093 ft | 445 kts | 186° |
| 2026-05-07 17:43 | 52.03117 | 9.38071 | 35089 ft | 445 kts | 186° |
| 2026-05-07 17:44 | 51.96939 | 9.37231 | 35086 ft | 445 kts | 186° |
| 2026-05-07 17:44 | 51.90715 | 9.36378 | 35081 ft | 446 kts | 186° |
| 2026-05-07 17:45 | 51.84540 | 9.35533 | 35080 ft | 446 kts | 186° |
| 2026-05-07 17:45 | 51.78354 | 9.34694 | 35081 ft | 446 kts | 186° |
| 2026-05-07 17:46 | 51.72163 | 9.33857 | 35070 ft | 446 kts | 186° |
| 2026-05-07 17:46 | 51.65976 | 9.33017 | 35078 ft | 446 kts | 186° |
| 2026-05-07 17:47 | 51.59784 | 9.32181 | 35073 ft | 447 kts | 186° |
| 2026-05-07 17:47 | 51.53607 | 9.31106 | 35074 ft | 446 kts | 188° |
| 2026-05-07 17:48 | 51.48498 | 9.29961 | 35077 ft | 446 kts | 189° |
| 2026-05-07 17:48 | 51.42342 | 9.28556 | 35076 ft | 447 kts | 189° |
| 2026-05-07 17:49 | 51.36139 | 9.27218 | 35073 ft | 447 kts | 188° |
| 2026-05-07 17:49 | 51.29970 | 9.25939 | 35075 ft | 447 kts | 188° |
| 2026-05-07 17:50 | 51.23792 | 9.24666 | 35074 ft | 447 kts | 188° |
| 2026-05-07 17:50 | 51.17618 | 9.23376 | 35070 ft | 448 kts | 188° |
| 2026-05-07 17:51 | 51.11439 | 9.22079 | 35075 ft | 448 kts | 188° |
| 2026-05-07 17:51 | 51.05263 | 9.20795 | 35073 ft | 448 kts | 188° |
| 2026-05-07 17:52 | 50.99076 | 9.19514 | 35072 ft | 448 kts | 188° |
| 2026-05-07 17:52 | 50.92890 | 9.18246 | 35047 ft | 449 kts | 188° |
| 2026-05-07 17:53 | 50.86685 | 9.16968 | 35038 ft | 450 kts | 188° |
| 2026-05-07 17:53 | 50.80470 | 9.15699 | 35030 ft | 450 kts | 188° |
| 2026-05-07 17:54 | 50.74243 | 9.14432 | 35032 ft | 451 kts | 188° |
| 2026-05-07 17:54 | 50.68022 | 9.13152 | 35029 ft | 451 kts | 188° |
| 2026-05-07 17:55 | 50.61796 | 9.11868 | 35031 ft | 451 kts | 188° |
| 2026-05-07 17:55 | 50.56358 | 9.10769 | 35028 ft | 451 kts | 188° |
| 2026-05-07 17:56 | 50.50134 | 9.09513 | 35039 ft | 451 kts | 189° |
| 2026-05-07 17:56 | 50.43898 | 9.08262 | 35037 ft | 451 kts | 188° |
| 2026-05-07 17:57 | 50.38681 | 9.07220 | 35037 ft | 451 kts | 189° |
| 2026-05-07 17:57 | 50.31404 | 9.05750 | 35035 ft | 451 kts | 189° |
| 2026-05-07 17:58 | 50.25171 | 9.04495 | 35045 ft | 451 kts | 189° |
| 2026-05-07 17:58 | 50.21303 | 9.03720 | 35044 ft | 451 kts | 189° |
| 2026-05-07 17:59 | 50.15065 | 9.02463 | 35047 ft | 451 kts | 189° |
| 2026-05-07 17:59 | 50.08839 | 9.01228 | 35046 ft | 451 kts | 189° |
| 2026-05-07 18:00 | 50.02609 | 8.99996 | 35045 ft | 451 kts | 189° |
| 2026-05-07 18:00 | 49.96378 | 8.98764 | 35047 ft | 451 kts | 189° |
| 2026-05-07 18:01 | 49.90150 | 8.97526 | 35056 ft | 451 kts | 189° |
| 2026-05-07 18:01 | 49.83919 | 8.96299 | 35053 ft | 451 kts | 189° |
| 2026-05-07 18:02 | 49.74581 | 8.94474 | 35053 ft | 451 kts | 189° |
| 2026-05-07 18:03 | 49.68351 | 8.93255 | 35052 ft | 451 kts | 189° |
| 2026-05-07 18:03 | 49.62122 | 8.92039 | 35052 ft | 451 kts | 189° |
| 2026-05-07 18:04 | 49.55892 | 8.90827 | 35049 ft | 451 kts | 189° |
| 2026-05-07 18:04 | 49.49635 | 8.89613 | 35052 ft | 451 kts | 189° |
| 2026-05-07 18:05 | 49.43406 | 8.88410 | 35050 ft | 451 kts | 189° |
| 2026-05-07 18:05 | 49.37183 | 8.87204 | 35052 ft | 451 kts | 189° |
| 2026-05-07 18:05 | 49.34069 | 8.86600 | 34729 ft | 452 kts | 189° |
| 2026-05-07 18:06 | 49.30950 | 8.85999 | 34302 ft | 451 kts | 189° |
| 2026-05-07 18:06 | 49.27833 | 8.85400 | 33853 ft | 451 kts | 189° |
| 2026-05-07 18:06 | 49.24715 | 8.84799 | 33346 ft | 452 kts | 189° |
| 2026-05-07 18:06 | 49.21593 | 8.84195 | 32851 ft | 453 kts | 189° |
| 2026-05-07 18:07 | 49.18455 | 8.83590 | 32375 ft | 454 kts | 189° |
| 2026-05-07 18:07 | 49.15312 | 8.82990 | 31903 ft | 456 kts | 189° |
| 2026-05-07 18:07 | 49.12164 | 8.82391 | 31440 ft | 457 kts | 189° |
| 2026-05-07 18:07 | 49.09005 | 8.81793 | 30984 ft | 458 kts | 189° |
| 2026-05-07 18:08 | 49.05837 | 8.81193 | 30533 ft | 459 kts | 189° |
| 2026-05-07 18:08 | 49.02667 | 8.80589 | 30087 ft | 460 kts | 189° |
| 2026-05-07 18:08 | 48.99482 | 8.79979 | 29552 ft | 462 kts | 189° |
| 2026-05-07 18:08 | 48.96292 | 8.79372 | 29045 ft | 462 kts | 189° |
| 2026-05-07 18:09 | 48.93095 | 8.78770 | 28541 ft | 463 kts | 189° |
| 2026-05-07 18:09 | 48.89901 | 8.78168 | 28040 ft | 461 kts | 189° |
| 2026-05-07 18:09 | 48.86695 | 8.77530 | 27544 ft | 457 kts | 191° |
| 2026-05-07 18:09 | 48.83568 | 8.76776 | 27067 ft | 453 kts | 192° |
| 2026-05-07 18:10 | 48.80483 | 8.75932 | 26600 ft | 448 kts | 193° |
| 2026-05-07 18:10 | 48.77432 | 8.75049 | 26160 ft | 445 kts | 193° |
| 2026-05-07 18:10 | 48.74402 | 8.74168 | 25728 ft | 441 kts | 193° |
| 2026-05-07 18:10 | 48.71398 | 8.73314 | 25304 ft | 438 kts | 193° |
| 2026-05-07 18:11 | 48.68408 | 8.72491 | 24884 ft | 434 kts | 193° |
| 2026-05-07 18:11 | 48.66444 | 8.71963 | 24613 ft | 432 kts | 193° |
| 2026-05-07 18:11 | 48.62500 | 8.70920 | 24062 ft | 428 kts | 192° |
| 2026-05-07 18:11 | 48.59574 | 8.70153 | 23662 ft | 427 kts | 192° |
| 2026-05-07 18:12 | 48.56660 | 8.69385 | 23196 ft | 424 kts | 192° |
| 2026-05-07 18:12 | 48.53765 | 8.68616 | 22730 ft | 420 kts | 192° |
| 2026-05-07 18:12 | 48.50900 | 8.67853 | 22267 ft | 417 kts | 192° |
| 2026-05-07 18:12 | 48.48042 | 8.67099 | 21811 ft | 415 kts | 192° |
| 2026-05-07 18:13 | 48.45214 | 8.66355 | 21365 ft | 412 kts | 192° |
| 2026-05-07 18:13 | 48.42400 | 8.65614 | 20925 ft | 409 kts | 192° |
| 2026-05-07 18:13 | 48.39601 | 8.64879 | 20494 ft | 407 kts | 192° |
| 2026-05-07 18:13 | 48.36823 | 8.64138 | 20058 ft | 404 kts | 192° |
| 2026-05-07 18:14 | 48.34069 | 8.63343 | 19635 ft | 402 kts | 193° |
| 2026-05-07 18:14 | 48.31338 | 8.62510 | 19226 ft | 399 kts | 194° |
| 2026-05-07 18:14 | 48.28633 | 8.61662 | 18817 ft | 397 kts | 194° |
| 2026-05-07 18:14 | 48.25900 | 8.60803 | 18411 ft | 403 kts | 194° |
| 2026-05-07 18:15 | 48.23152 | 8.59947 | 18079 ft | 404 kts | 193° |
| 2026-05-07 18:15 | 48.20396 | 8.59107 | 18053 ft | 404 kts | 193° |
| 2026-05-07 18:15 | 48.17632 | 8.58275 | 18061 ft | 405 kts | 193° |
| 2026-05-07 18:15 | 48.14828 | 8.57437 | 18062 ft | 405 kts | 193° |
| 2026-05-07 18:16 | 48.12066 | 8.56621 | 18059 ft | 405 kts | 193° |
| 2026-05-07 18:16 | 48.09296 | 8.55807 | 18057 ft | 405 kts | 193° |
| 2026-05-07 18:16 | 48.06534 | 8.54994 | 18060 ft | 405 kts | 193° |
| 2026-05-07 18:16 | 48.03764 | 8.54176 | 18059 ft | 405 kts | 193° |
| 2026-05-07 18:17 | 48.00995 | 8.53358 | 18056 ft | 405 kts | 193° |
| 2026-05-07 18:17 | 47.98226 | 8.52537 | 18053 ft | 405 kts | 193° |
| 2026-05-07 18:17 | 47.95466 | 8.51718 | 18057 ft | 405 kts | 193° |
| 2026-05-07 18:17 | 47.92695 | 8.50946 | 18061 ft | 406 kts | 191° |
| 2026-05-07 18:18 | 47.89895 | 8.50312 | 18059 ft | 406 kts | 189° |
| 2026-05-07 18:18 | 47.87094 | 8.49777 | 18058 ft | 407 kts | 188° |
| 2026-05-07 18:18 | 47.84272 | 8.49439 | 18054 ft | 408 kts | 181° |
| 2026-05-07 18:18 | 47.81457 | 8.49918 | 18051 ft | 404 kts | 169° |
| 2026-05-07 18:19 | 47.78788 | 8.51134 | 17996 ft | 401 kts | 160° |
| 2026-05-07 18:19 | 47.76254 | 8.52842 | 17720 ft | 398 kts | 157° |
| 2026-05-07 18:19 | 47.73764 | 8.54559 | 17262 ft | 392 kts | 157° |
| 2026-05-07 18:19 | 47.71306 | 8.56247 | 16748 ft | 387 kts | 157° |
| 2026-05-07 18:20 | 47.69380 | 8.57569 | 16347 ft | 384 kts | 157° |
| 2026-05-07 18:20 | 47.67779 | 8.58671 | 16008 ft | 382 kts | 157° |
| 2026-05-07 18:20 | 47.65350 | 8.60344 | 15476 ft | 379 kts | 158° |
| 2026-05-07 18:20 | 47.62969 | 8.61981 | 14954 ft | 376 kts | 158° |
| 2026-05-07 18:21 | 47.60597 | 8.63614 | 14409 ft | 374 kts | 158° |
| 2026-05-07 18:21 | 47.58249 | 8.65231 | 13864 ft | 373 kts | 158° |
| 2026-05-07 18:21 | 47.55893 | 8.66851 | 13245 ft | 371 kts | 158° |
| 2026-05-07 18:21 | 47.53766 | 8.68311 | 12732 ft | 368 kts | 158° |
| 2026-05-07 18:22 | 47.51452 | 8.69898 | 12152 ft | 365 kts | 158° |
| 2026-05-07 18:22 | 47.49933 | 8.70941 | 11779 ft | 363 kts | 158° |
| 2026-05-07 18:22 | 47.46878 | 8.73036 | 10995 ft | 360 kts | 158° |
| 2026-05-07 18:22 | 47.44637 | 8.74571 | 10759 ft | 348 kts | 158° |
| 2026-05-07 18:23 | 47.42487 | 8.76043 | 10635 ft | 333 kts | 158° |
| 2026-05-07 18:23 | 47.40434 | 8.77446 | 10510 ft | 319 kts | 158° |
| 2026-05-07 18:23 | 47.38455 | 8.78797 | 10386 ft | 307 kts | 158° |
| 2026-05-07 18:23 | 47.36550 | 8.80099 | 10250 ft | 297 kts | 158° |
| 2026-05-07 18:24 | 47.34699 | 8.81362 | 10022 ft | 290 kts | 158° |
| 2026-05-07 18:24 | 47.32899 | 8.82590 | 9964 ft | 279 kts | 158° |
| 2026-05-07 18:24 | 47.31159 | 8.83773 | 9630 ft | 274 kts | 158° |
| 2026-05-07 18:24 | 47.29381 | 8.84634 | 9014 ft | 267 kts | 178° |
| 2026-05-07 18:25 | 47.27609 | 8.84279 | 8588 ft | 253 kts | 204° |
| 2026-05-07 18:25 | 47.26201 | 8.82857 | 8155 ft | 242 kts | 229° |
| 2026-05-07 18:25 | 47.25343 | 8.80775 | 7737 ft | 234 kts | 246° |
| 2026-05-07 18:25 | 47.24679 | 8.78647 | 7490 ft | 223 kts | 245° |
| 2026-05-07 18:26 | 47.24041 | 8.76629 | 7206 ft | 214 kts | 245° |
| 2026-05-07 18:26 | 47.23416 | 8.74649 | 6839 ft | 214 kts | 247° |
| 2026-05-07 18:26 | 47.23145 | 8.72518 | 6552 ft | 214 kts | 277° |
| 2026-05-07 18:26 | 47.23676 | 8.70480 | 6415 ft | 217 kts | 308° |
| 2026-05-07 18:27 | 47.24857 | 8.69131 | 6169 ft | 217 kts | 334° |
| 2026-05-07 18:27 | 47.26237 | 8.68195 | 5853 ft | 218 kts | 336° |
| 2026-05-07 18:27 | 47.27622 | 8.67270 | 5530 ft | 219 kts | 335° |
| 2026-05-07 18:27 | 47.29011 | 8.66325 | 5205 ft | 220 kts | 335° |
| 2026-05-07 18:28 | 47.30421 | 8.65362 | 4886 ft | 221 kts | 335° |
| 2026-05-07 18:28 | 47.31801 | 8.64419 | 4545 ft | 216 kts | 335° |
| 2026-05-07 18:28 | 47.33137 | 8.63504 | 4228 ft | 211 kts | 335° |
| 2026-05-07 18:28 | 47.34464 | 8.62596 | 3914 ft | 204 kts | 335° |
| 2026-05-07 18:29 | 47.35719 | 8.61736 | 3657 ft | 194 kts | 335° |
| 2026-05-07 18:29 | 47.36915 | 8.60917 | 3349 ft | 185 kts | 335° |
| 2026-05-07 18:29 | 47.38055 | 8.60134 | 3076 ft | 175 kts | 335° |
| 2026-05-07 18:29 | 47.39114 | 8.59408 | 2816 ft | 161 kts | 335° |
| 2026-05-07 18:30 | 47.40083 | 8.58743 | 2602 ft | 149 kts | 335° |
| 2026-05-07 18:30 | 47.40998 | 8.58115 | 2374 ft | 143 kts | 335° |
| 2026-05-07 18:30 | 47.41891 | 8.57501 | 2143 ft | 141 kts | 335° |
| 2026-05-07 18:30 | 47.42771 | 8.56894 | 1942 ft | 139 kts | 336° |
| 2026-05-07 18:31 | 47.43646 | 8.56296 | 1747 ft | 138 kts | 335° |
| 2026-05-07 18:31 | 47.44510 | 8.55703 | 1536 ft | 136 kts | 335° |
| 2026-05-07 18:31 | 47.45356 | 8.55119 | 1402 ft | 127 kts | 336° |
| 2026-05-07 18:31 | 47.46028 | 8.54656 | 1389 ft | 82 kts | 335° |
| 2026-05-07 18:32 | 47.46341 | 8.54443 | 1383 ft | 28 kts | 335° |
| 2026-05-07 18:32 | 47.46450 | 8.54482 | 1383 ft | 16 kts | 63° |
| 2026-05-07 18:32 | 47.46481 | 8.54584 | 1385 ft | 8 kts | 73° |
| 2026-05-07 18:32 | 47.46464 | 8.54636 | 1384 ft | 5 kts | 148° |
| 2026-05-07 18:33 | 47.46417 | 8.54667 | 1384 ft | 12 kts | 155° |
| 2026-05-07 18:33 | 47.46312 | 8.54740 | 1384 ft | 17 kts | 155° |
| 2026-05-07 18:33 | 47.46213 | 8.54807 | 1386 ft | 14 kts | 155° |
| 2026-05-07 18:33 | 47.46133 | 8.54862 | 1388 ft | 12 kts | 155° |
| 2026-05-07 18:34 | 47.46055 | 8.54916 | 1388 ft | 14 kts | 155° |
| 2026-05-07 18:34 | 47.45971 | 8.54974 | 1398 ft | 12 kts | 155° |
| 2026-05-07 18:34 | 47.45900 | 8.55023 | 1396 ft | 14 kts | 154° |
| 2026-05-07 18:34 | 47.45767 | 8.55117 | 1399 ft | 24 kts | 155° |
| 2026-05-07 18:35 | 47.45684 | 8.55217 | 1397 ft | 12 kts | 102° |
| 2026-05-07 18:35 | 47.45674 | 8.55353 | 1407 ft | 14 kts | 96° |
| 2026-05-07 18:35 | 47.45662 | 8.55530 | 1403 ft | 19 kts | 96° |
| 2026-05-07 18:35 | 47.45648 | 8.55719 | 1407 ft | 18 kts | 95° |
| 2026-05-07 18:36 | 47.45614 | 8.55846 | 1409 ft | 11 kts | 163° |
| 2026-05-07 18:36 | 47.45528 | 8.55833 | 1408 ft | 13 kts | 199° |
| 2026-05-07 18:36 | 47.45457 | 8.55808 | 1407 ft | 8 kts | 185° |
| 2026-05-07 18:36 | 47.45427 | 8.55804 | 1407 ft | 1 kts | 186° |
| 2026-05-07 18:37 | 47.45426 | 8.55803 | 1407 ft | 0 kts | 186° |